Weather observations for the past three days for
Nome, Nome Airport
Metric (Imperial)
Date Time (akdt) Wind (kph) Vis. (km) Weather Sky Cond. Temperature (ºC) Relative Humidity Wind Chill (°C) Heat Index (°C) Pressure Precipitation (cm)
Air Dwpt 6 hour altimeter (cm) sea level (mb) 1 hr 3 hr 6 hr
Max. Min.
07 12:53 S 11 16.09 Fair CLR -2.8 -6.7 75% -7 76.58 1021.0
07 11:53 S 9 16.09 Fair CLR -3.3 -7.2 75% -7 76.58 1020.9
07 10:53 S 7 16.09 Partly Cloudy SCT015 -3.3 -7.2 75% -6 76.58 1021.0
07 09:53 Vrbl 6 16.09 A Few Clouds FEW012 -3.9 -7.8 -3.9 -7.8 75% 76.58 1020.9
07 08:53 Calm 16.09 Fair CLR -4.4 -7.8 77% 76.58 1020.8
07 07:53 Calm 16.09 Fair CLR -5.6 -8.3 82% 76.58 1020.8
07 06:53 Calm 16.09 Fair CLR -6.1 -8.3 85% 76.56 1020.6
07 05:53 W 6 16.09 Fair CLR -7.2 -9.4 84% 76.56 1020.6
07 04:53 NW 6 16.09 Fair CLR -6.7 -8.3 89% 76.53 1020.4
07 03:53 N 6 16.09 Fair CLR -5.6 -7.2 -0.6 -5.6 89% 76.53 1020.4
07 02:53 Calm 16.09 Fair CLR -5 -8.3 78% 76.53 1020.4
07 01:53 NW 9 16.09 Fair CLR -4.4 -7.8 77% -8 76.53 1020.2
07 00:53 NW 6 16.09 Fair CLR -2.8 -7.8 69% 76.5 1019.9
06 23:53 W 6 16.09 Fair CLR -2.2 -7.2 69% 76.48 1019.5
06 22:53 N 9 16.09 Fair CLR -1.1 -6.1 69% -4 76.45 1019.3
06 21:53 W 15 16.09 Fair CLR -0.6 -4.4 1.1 -1.7 76% -5 76.45 1019.3
06 20:53 W 20 16.09 Fair CLR 0.6 -3.9 72% -4 76.45 1019.2
06 19:53 W 22 16.09 Fair CLR -0.6 -3.9 79% -6 76.43 1019.1
06 18:53 W 20 16.09 Fair CLR -1.1 -3.9 82% -6 76.43 1019.0
06 17:53 W 22 16.09 Fair CLR -1.1 -5.6 72% -7 76.43 1018.8
06 16:53 W 19 16.09 Fair CLR -1.1 -5 75% -6 76.4 1018.8
06 14:53 S 11 16.09 Fair CLR -1.7 -5.6 75% -5 76.38 1018.4
06 13:53 SW 9 16.09 Fair CLR -2.2 -6.1 75% -5 76.4 1018.5
06 12:53 Vrbl 7 16.09 Fair CLR -2.8 -6.1 78% -5 76.38 1018.2
06 11:53 S 9 16.09 Fair CLR -3.3 -6.7 78% -7 76.35 1017.9
06 10:53 SW 11 16.09 Fair CLR -3.9 -7.2 78% -8 76.35 1017.8
06 09:53 S 6 16.09 Fair CLR -3.9 -7.2 -3.3 -6.1 78% 76.33 1017.5
06 08:53 Calm 16.09 Fair CLR -3.9 -6.7 81% 76.3 1017.2
06 07:53 Calm 16.09 Fair CLR -5 -7.2 85% 76.28 1016.8
06 06:53 NW 6 16.09 Fair CLR -6.1 -8.9 81% 76.25 1016.6
06 05:53 N 11 16.09 Partly Cloudy SCT028 -5 -8.3 78% -9 76.23 1016.3
06 04:53 N 7 16.09 Overcast OVC029 -3.3 -7.2 75% -6 76.2 1016.0
06 03:53 N 9 16.09 Overcast OVC030 -3.9 -7.2 0 -3.9 78% -7 76.2 1015.9
06 02:53 NW 6 16.09 Overcast OVC030 -2.8 -6.7 75% 76.17 1015.7
06 01:53 W 6 16.09 Overcast OVC031 -2.2 -6.1 75% 76.17 1015.6
06 00:53 N 9 16.09 Overcast OVC031 -2.2 -6.7 72% -5 76.15 1015.3
05 23:53 NW 6 16.09 Overcast OVC030 -1.7 -5.6 75% 76.12 1014.9
05 22:53 E 11 16.09 A Few Clouds FEW030 -1.7 -5 78% -5 76.1 1014.4
05 21:53 NE 9 16.09 Fair CLR 0 -5.6 2.2 -0.6 66% -3 76.05 1014.0
05 20:53 NW 17 16.09 Fair CLR 0 -7.2 59% -4 76.05 1013.8
05 19:53 NW 11 16.09 Fair CLR 0.6 -7.2 56% -2 76.05 1013.8
05 18:53 W 28 16.09 Fair CLR 1.1 -5.6 61% -4 76.02 1013.6
05 17:53 W 24 16.09 Fair CLR 1.7 -5 61% -3 76 1013.3
05 16:53 NW 19 16.09 Fair CLR 1.7 -6.1 57% -2 76 1013.0
05 15:53 W 15 16.09 Fair CLR 1.7 -5 1.7 -2.8 61% -2 75.97 1013.0
05 14:53 W 7 16.09 Fair CLR 1.1 -6.1 59% -1 76 1013.1
05 13:53 NW 7 16.09 Fair CLR 0.6 -7.2 56% -1 75.97 1012.9
05 12:53 W 9 16.09 Fair CLR -0.6 -7.2 61% -3 76 1013.0
05 11:53 Calm 16.09 Fair CLR -0.6 -7.2 61% 76 1013.1
05 10:53 Calm 16.09 Fair CLR -1.7 -7.2 66% 76 1013.0
05 09:53 Calm 16.09 Fair CLR -2.8 -7.2 -2.8 -6.7 72% 76 1013.2
05 08:53 W 9 16.09 Fair CLR -3.9 -7.2 78% -7 76 1013.0
05 07:53 W 9 16.09 Fair CLR -4.4 -7.8 77% -8 75.97 1012.9
05 06:53 NW 11 16.09 Fair CLR -5.6 -7.8 85% -10 75.97 1012.8
05 05:53 NW 9 16.09 Fair CLR -6.1 -7.8 88% -10 75.97 1012.9
05 04:53 NW 9 16.09 Fair CLR -5.6 -7.2 89% -9 75.97 1012.9
05 03:53 W 19 16.09 Fair CLR -4.4 -6.7 1.1 -5 84% -10 76 1013.3
05 02:53 W 9 16.09 Fair CLR -3.9 -6.7 81% -7 76 1013.4
05 01:53 NW 7 16.09 Fair CLR -3.3 -6.1 81% -6 76.05 1013.7
05 00:53 N 9 16.09 Fair CLR -2.2 -6.1 75% -5 76.05 1014.0
04 23:53 NW 6 16.09 Fair CLR -1.7 -5.6 75% 76.07 1014.3
04 22:53 NW 11 16.09 Fair CLR -0.6 -5 72% -4 76.1 1014.5
04 21:53 NW 11 16.09 Fair CLR 1.1 -5 2.2 0 64% -2 76.12 1014.8
04 20:53 NW 13 16.09 Fair CLR 2.2 -6.1 55% -1 76.12 1015.0
04 19:53 NW 13 16.09 Fair CLR 2.2 -6.7 52% -1 76.15 1015.3
04 18:53 NW 13 16.09 Fair CLR 2.2 -6.1 55% -1 76.17 1015.5
04 17:53 N 13 16.09 Fair CLR 1.7 -6.1 57% -2 76.23 1016.1
04 16:53 NW 15 16.09 Fair CLR 1.1 -6.7 56% -3 76.28 1016.8
04 15:53 W 19 16.09 Fair CLR 0.6 -4.4 1.1 -2.8 70% -4 76.3 1017.3
04 14:53 W 11 16.09 Fair CLR 0 -6.1 64% -3 76.35 1018.0
04 13:53 W 7 16.09 Fair CLR -0.6 -6.1 67% -3 76.38 1018.4
Date Time (akdt) Wind (kph) Vis. (km) Weather Sky Cond. Air Dwpt Max. Min. Relative Humidity Wind Chill (°C) Heat Index (°C) altimeter (cm) sea level (mb) 1 hr 3 hr 6 hr
6 hour
Temperature (ºC) Pressure Precipitation (cm)